sensor_id;sensor_type;location;lat;lon;timestamp;pressure;altitude;pressure_sealevel;temperature;humidity
46583;BME280;32309;48.858;8.252;2022-09-09T00:02:17;99896.19;;;18.36;67.10
46583;BME280;32309;48.858;8.252;2022-09-09T00:04:23;99904.06;;;18.36;67.07
46583;BME280;32309;48.858;8.252;2022-09-09T00:07:13;99900.88;;;18.32;66.60
46583;BME280;32309;48.858;8.252;2022-09-09T00:09:18;99893.28;;;18.29;66.84
46583;BME280;32309;48.858;8.252;2022-09-09T00:11:20;99893.84;;;18.33;67.19
46583;BME280;32309;48.858;8.252;2022-09-09T00:20:55;99893.97;;;18.31;67.22
46583;BME280;32309;48.858;8.252;2022-09-09T00:25:09;99891.66;;;18.28;67.50
46583;BME280;32309;48.858;8.252;2022-09-09T00:27:32;99895.09;;;18.28;67.39
46583;BME280;32309;48.858;8.252;2022-09-09T00:29:45;99892.63;;;18.27;67.40
46583;BME280;32309;48.858;8.252;2022-09-09T00:31:54;99895.25;;;18.27;67.28
46583;BME280;32309;48.858;8.252;2022-09-09T00:34:32;99892.78;;;18.25;67.49
46583;BME280;32309;48.858;8.252;2022-09-09T00:36:33;99897.66;;;18.20;67.02
46583;BME280;32309;48.858;8.252;2022-09-09T00:38:37;99890.75;;;18.19;66.52
46583;BME280;32309;48.858;8.252;2022-09-09T00:42:49;99901.00;;;18.12;66.59
46583;BME280;32309;48.858;8.252;2022-09-09T00:47:36;99894.56;;;18.07;66.05
46583;BME280;32309;48.858;8.252;2022-09-09T00:51:50;99905.75;;;17.99;66.44
46583;BME280;32309;48.858;8.252;2022-09-09T00:56:14;99913.91;;;17.96;65.57
46583;BME280;32309;48.858;8.252;2022-09-09T00:58:25;99919.03;;;17.98;66.56
46583;BME280;32309;48.858;8.252;2022-09-09T01:00:31;99929.63;;;17.96;66.26
46583;BME280;32309;48.858;8.252;2022-09-09T01:02:39;99937.50;;;17.96;65.28
46583;BME280;32309;48.858;8.252;2022-09-09T01:04:50;99941.22;;;17.93;66.75
46583;BME280;32309;48.858;8.252;2022-09-09T01:06:52;99952.84;;;17.91;66.88
46583;BME280;32309;48.858;8.252;2022-09-09T01:09:04;99953.53;;;17.83;68.12
46583;BME280;32309;48.858;8.252;2022-09-09T01:11:07;99959.09;;;17.70;69.05
46583;BME280;32309;48.858;8.252;2022-09-09T01:13:19;99966.00;;;17.61;68.61
46583;BME280;32309;48.858;8.252;2022-09-09T01:15:25;99974.56;;;17.54;68.36
46583;BME280;32309;48.858;8.252;2022-09-09T01:17:34;99969.19;;;17.45;71.14
46583;BME280;32309;48.858;8.252;2022-09-09T01:19:52;99961.22;;;17.37;71.18
46583;BME280;32309;48.858;8.252;2022-09-09T01:22:03;99966.88;;;17.33;72.33
46583;BME280;32309;48.858;8.252;2022-09-09T01:26:37;99962.34;;;17.25;73.36
46583;BME280;32309;48.858;8.252;2022-09-09T01:28:43;99956.81;;;17.18;75.28
46583;BME280;32309;48.858;8.252;2022-09-09T01:30:45;99957.09;;;17.15;75.49
46583;BME280;32309;48.858;8.252;2022-09-09T01:32:49;99960.56;;;17.06;74.71
46583;BME280;32309;48.858;8.252;2022-09-09T01:34:53;99949.00;;;16.99;73.47
46583;BME280;32309;48.858;8.252;2022-09-09T01:38:53;99954.91;;;16.91;73.33
46583;BME280;32309;48.858;8.252;2022-09-09T01:40:54;99939.44;;;16.88;74.45
46583;BME280;32309;48.858;8.252;2022-09-09T01:42:54;99948.09;;;16.78;73.77
46583;BME280;32309;48.858;8.252;2022-09-09T01:44:56;99936.97;;;16.76;73.79
46583;BME280;32309;48.858;8.252;2022-09-09T01:46:56;99927.88;;;16.71;73.91
46583;BME280;32309;48.858;8.252;2022-09-09T01:48:57;99927.56;;;16.64;75.20
46583;BME280;32309;48.858;8.252;2022-09-09T01:50:59;99926.75;;;16.63;75.60
46583;BME280;32309;48.858;8.252;2022-09-09T01:52:59;99926.75;;;16.63;74.05
46583;BME280;32309;48.858;8.252;2022-09-09T01:55:02;99925.09;;;16.62;75.63
46583;BME280;32309;48.858;8.252;2022-09-09T02:04:42;99912.84;;;16.63;77.49
46583;BME280;32309;48.858;8.252;2022-09-09T02:06:44;99917.09;;;16.64;75.77
46583;BME280;32309;48.858;8.252;2022-09-09T02:08:50;99916.28;;;16.63;75.68
46583;BME280;32309;48.858;8.252;2022-09-09T02:10:55;99913.66;;;16.63;78.12
46583;BME280;32309;48.858;8.252;2022-09-09T02:13:04;99907.72;;;16.61;77.57
46583;BME280;32309;48.858;8.252;2022-09-09T02:15:08;99909.38;;;16.62;77.44
46583;BME280;32309;48.858;8.252;2022-09-09T02:17:19;99901.97;;;16.68;77.66
46583;BME280;32309;48.858;8.252;2022-09-09T02:19:34;99896.47;;;16.71;77.20
46583;BME280;32309;48.858;8.252;2022-09-09T02:21:41;99895.22;;;16.75;77.56
46583;BME280;32309;48.858;8.252;2022-09-09T02:23:44;99892.31;;;16.78;78.26
46583;BME280;32309;48.858;8.252;2022-09-09T02:25:48;99898.94;;;16.82;77.70
46583;BME280;32309;48.858;8.252;2022-09-09T02:27:53;99887.22;;;16.86;78.18
46583;BME280;32309;48.858;8.252;2022-09-09T02:29:53;99895.22;;;16.85;78.03
46583;BME280;32309;48.858;8.252;2022-09-09T02:32:00;99874.84;;;16.88;77.84
46583;BME280;32309;48.858;8.252;2022-09-09T02:34:04;99882.44;;;16.91;77.46
46583;BME280;32309;48.858;8.252;2022-09-09T02:36:05;99888.38;;;16.93;77.85
46583;BME280;32309;48.858;8.252;2022-09-09T02:38:10;99885.59;;;16.95;78.02
46583;BME280;32309;48.858;8.252;2022-09-09T02:40:13;99898.69;;;16.95;77.63
46583;BME280;32309;48.858;8.252;2022-09-09T02:42:16;99888.91;;;16.97;77.44
46583;BME280;32309;48.858;8.252;2022-09-09T02:44:17;99899.66;;;16.94;77.62
46583;BME280;32309;48.858;8.252;2022-09-09T02:48:44;99884.34;;;16.89;76.77
46583;BME280;32309;48.858;8.252;2022-09-09T02:51:15;99886.13;;;16.89;77.60
46583;BME280;32309;48.858;8.252;2022-09-09T02:53:23;99882.56;;;16.90;77.96
46583;BME280;32309;48.858;8.252;2022-09-09T02:57:42;99896.88;;;16.86;75.99
46583;BME280;32309;48.858;8.252;2022-09-09T02:59:45;99897.28;;;16.81;78.23
46583;BME280;32309;48.858;8.252;2022-09-09T03:01:46;99900.75;;;16.82;78.19
46583;BME280;32309;48.858;8.252;2022-09-09T03:03:47;99895.50;;;16.82;77.95
46583;BME280;32309;48.858;8.252;2022-09-09T03:05:47;99896.47;;;16.80;77.04
46583;BME280;32309;48.858;8.252;2022-09-09T03:07:48;99903.50;;;16.80;78.28
46583;BME280;32309;48.858;8.252;2022-09-09T03:09:49;99898.38;;;16.78;78.25
46583;BME280;32309;48.858;8.252;2022-09-09T03:11:50;99903.50;;;16.80;78.79
46583;BME280;32309;48.858;8.252;2022-09-09T03:13:50;99906.22;;;16.78;77.33
46583;BME280;32309;48.858;8.252;2022-09-09T03:15:51;99905.13;;;16.81;78.56
46583;BME280;32309;48.858;8.252;2022-09-09T03:17:51;99896.19;;;16.84;78.68
46583;BME280;32309;48.858;8.252;2022-09-09T03:19:52;99899.78;;;16.83;78.54
46583;BME280;32309;48.858;8.252;2022-09-09T03:21:54;99891.22;;;16.80;77.86
46583;BME280;32309;48.858;8.252;2022-09-09T03:23:54;99893.84;;;16.80;78.43
46583;BME280;32309;48.858;8.252;2022-09-09T03:25:55;99891.22;;;16.80;78.82
46583;BME280;32309;48.858;8.252;2022-09-09T03:27:57;99896.47;;;16.80;78.14
46583;BME280;32309;48.858;8.252;2022-09-09T03:29:57;99897.28;;;16.81;77.44
46583;BME280;32309;48.858;8.252;2022-09-09T03:31:57;99905.13;;;16.81;77.29
46583;BME280;32309;48.858;8.252;2022-09-09T03:33:58;99906.22;;;16.78;78.08
46583;BME280;32309;48.858;8.252;2022-09-09T03:35:58;99903.75;;;16.77;78.88
46583;BME280;32309;48.858;8.252;2022-09-09T03:37:58;99899.63;;;16.74;77.42
46583;BME280;32309;48.858;8.252;2022-09-09T03:40:00;99903.19;;;16.73;78.08
46583;BME280;32309;48.858;8.252;2022-09-09T03:42:01;99896.19;;;16.74;79.06
46583;BME280;32309;48.858;8.252;2022-09-09T03:44:05;99901.56;;;16.72;77.98
46583;BME280;32309;48.858;8.252;2022-09-09T03:46:05;99896.59;;;16.69;76.47
46583;BME280;32309;48.858;8.252;2022-09-09T03:48:06;99894.09;;;16.68;77.60
46583;BME280;32309;48.858;8.252;2022-09-09T03:50:07;99891.50;;;16.68;77.94
46583;BME280;32309;48.858;8.252;2022-09-09T03:52:10;99896.16;;;16.64;77.71
46583;BME280;32309;48.858;8.252;2022-09-09T03:54:10;99893.53;;;16.64;77.77
46583;BME280;32309;48.858;8.252;2022-09-09T03:56:10;99897.97;;;16.63;76.85
46583;BME280;32309;48.858;8.252;2022-09-09T03:58:11;99897.41;;;16.60;76.65
46583;BME280;32309;48.858;8.252;2022-09-09T04:00:15;99900.44;;;16.55;77.01
46583;BME280;32309;48.858;8.252;2022-09-09T04:02:15;99899.75;;;16.53;77.59
46583;BME280;32309;48.858;8.252;2022-09-09T04:04:16;99902.50;;;16.52;77.76
46583;BME280;32309;48.858;8.252;2022-09-09T04:06:16;99907.44;;;16.55;77.74
46583;BME280;32309;48.858;8.252;2022-09-09T04:08:18;99909.25;;;16.54;78.64
46583;BME280;32309;48.858;8.252;2022-09-09T04:10:19;99906.63;;;16.54;77.88
46583;BME280;32309;48.858;8.252;2022-09-09T04:12:20;99915.28;;;16.55;78.83
46583;BME280;32309;48.858;8.252;2022-09-09T04:14:22;99912.69;;;16.55;78.23
46583;BME280;32309;48.858;8.252;2022-09-09T04:16:22;99904.72;;;16.56;77.59
46583;BME280;32309;48.858;8.252;2022-09-09T04:18:22;99908.84;;;16.59;78.04
46583;BME280;32309;48.858;8.252;2022-09-09T04:20:23;99904.28;;;16.61;77.89
46583;BME280;32309;48.858;8.252;2022-09-09T04:22:24;99906.78;;;16.62;78.37
46583;BME280;32309;48.858;8.252;2022-09-09T04:24:24;99904.00;;;16.64;78.14
46583;BME280;32309;48.858;8.252;2022-09-09T04:26:24;99911.03;;;16.63;77.40
46583;BME280;32309;48.858;8.252;2022-09-09T04:28:26;99910.09;;;16.64;77.58
46583;BME280;32309;48.858;8.252;2022-09-09T04:30:28;99909.94;;;16.66;78.07
46583;BME280;32309;48.858;8.252;2022-09-09T04:32:28;99912.72;;;16.64;77.92
46583;BME280;32309;48.858;8.252;2022-09-09T04:34:29;99917.22;;;16.62;77.20
46583;BME280;32309;48.858;8.252;2022-09-09T04:36:31;99920.81;;;16.61;77.48
46583;BME280;32309;48.858;8.252;2022-09-09T04:38:32;99926.31;;;16.58;77.18
46583;BME280;32309;48.858;8.252;2022-09-09T04:40:32;99928.13;;;16.58;77.38
46583;BME280;32309;48.858;8.252;2022-09-09T04:42:36;99918.34;;;16.60;77.66
46583;BME280;32309;48.858;8.252;2022-09-09T04:44:36;99923.56;;;16.60;77.62
46583;BME280;32309;48.858;8.252;2022-09-09T04:46:37;99929.78;;;16.59;77.53
46583;BME280;32309;48.858;8.252;2022-09-09T04:48:37;99926.19;;;16.60;77.92
46583;BME280;32309;48.858;8.252;2022-09-09T04:50:38;99929.78;;;16.59;77.55
46583;BME280;32309;48.858;8.252;2022-09-09T04:52:38;99924.28;;;16.62;77.77
46583;BME280;32309;48.858;8.252;2022-09-09T04:54:38;99932.94;;;16.62;78.37
46583;BME280;32309;48.858;8.252;2022-09-09T04:56:39;99931.84;;;16.65;77.66
46583;BME280;32309;48.858;8.252;2022-09-09T04:58:41;99930.88;;;16.66;77.71
46583;BME280;32309;48.858;8.252;2022-09-09T05:00:45;99938.72;;;16.66;78.14
46583;BME280;32309;48.858;8.252;2022-09-09T05:02:46;99936.13;;;16.66;78.03
46583;BME280;32309;48.858;8.252;2022-09-09T05:04:47;99935.03;;;16.69;76.02
46583;BME280;32309;48.858;8.252;2022-09-09T05:06:49;99936.94;;;16.67;76.52
46583;BME280;32309;48.858;8.252;2022-09-09T05:08:50;99941.22;;;16.68;76.93
46583;BME280;32309;48.858;8.252;2022-09-09T05:10:50;99947.41;;;16.67;76.47
46583;BME280;32309;48.858;8.252;2022-09-09T05:12:53;99943.97;;;16.66;76.90
46583;BME280;32309;48.858;8.252;2022-09-09T05:14:54;99939.44;;;16.68;76.83
46583;BME280;32309;48.858;8.252;2022-09-09T05:16:54;99937.50;;;16.70;77.34
46583;BME280;32309;48.858;8.252;2022-09-09T05:18:56;99945.19;;;16.72;77.22
46583;BME280;32309;48.858;8.252;2022-09-09T05:20:59;99948.38;;;16.75;77.48
46583;BME280;32309;48.858;8.252;2022-09-09T05:23:00;99944.66;;;16.78;76.71
46583;BME280;32309;48.858;8.252;2022-09-09T05:25:00;99948.66;;;16.82;77.14
46583;BME280;32309;48.858;8.252;2022-09-09T05:27:01;99948.38;;;16.85;77.01
46583;BME280;32309;48.858;8.252;2022-09-09T05:29:02;99949.22;;;16.86;77.12
46583;BME280;32309;48.858;8.252;2022-09-09T05:31:03;99952.50;;;16.88;76.62
46583;BME280;32309;48.858;8.252;2022-09-09T05:33:04;99955.03;;;16.89;76.52
46583;BME280;32309;48.858;8.252;2022-09-09T05:35:06;99958.47;;;16.90;77.33
46583;BME280;32309;48.858;8.252;2022-09-09T05:37:06;99954.91;;;16.91;77.06
46583;BME280;32309;48.858;8.252;2022-09-09T05:39:07;99948.81;;;16.90;76.54
46583;BME280;32309;48.858;8.252;2022-09-09T05:41:08;99957.38;;;16.92;75.97
46583;BME280;32309;48.858;8.252;2022-09-09T05:43:10;99964.94;;;16.95;75.81
46583;BME280;32309;48.858;8.252;2022-09-09T05:45:11;99959.47;;;16.99;75.88
46583;BME280;32309;48.858;8.252;2022-09-09T05:47:11;99959.03;;;17.03;76.28
46583;BME280;32309;48.858;8.252;2022-09-09T05:49:11;99960.84;;;17.03;76.94
46583;BME280;32309;48.858;8.252;2022-09-09T05:51:13;99964.13;;;17.05;77.13
46583;BME280;32309;48.858;8.252;2022-09-09T05:53:15;99963.16;;;17.06;77.17
46583;BME280;32309;48.858;8.252;2022-09-09T05:55:17;99962.22;;;17.07;76.97
46583;BME280;32309;48.858;8.252;2022-09-09T05:57:17;99960.97;;;17.11;77.00
46583;BME280;32309;48.858;8.252;2022-09-09T05:59:19;99961.78;;;17.11;76.70
46583;BME280;32309;48.858;8.252;2022-09-09T06:16:30;99963.84;;;17.27;76.73
46583;BME280;32309;48.858;8.252;2022-09-09T06:18:34;99971.44;;;17.30;76.52
46583;BME280;32309;48.858;8.252;2022-09-09T06:20:34;99966.75;;;17.34;77.15
46583;BME280;32309;48.858;8.252;2022-09-09T06:22:35;99959.56;;;17.36;76.98
46583;BME280;32309;48.858;8.252;2022-09-09T06:24:35;99962.03;;;17.38;76.78
46583;BME280;32309;48.858;8.252;2022-09-09T06:26:36;99956.66;;;17.39;76.27
46583;BME280;32309;48.858;8.252;2022-09-09T06:28:42;99958.16;;;17.42;76.56
46583;BME280;32309;48.858;8.252;2022-09-09T06:30:43;99952.81;;;17.43;76.44
46583;BME280;32309;48.858;8.252;2022-09-09T06:32:44;99950.88;;;17.45;75.72
46583;BME280;32309;48.858;8.252;2022-09-09T06:35:00;99951.56;;;17.48;74.89
46583;BME280;32309;48.858;8.252;2022-09-09T06:37:01;99957.47;;;17.50;75.50
46583;BME280;32309;48.858;8.252;2022-09-09T06:39:01;99958.16;;;17.52;75.76
46583;BME280;32309;48.858;8.252;2022-09-09T06:41:01;99965.75;;;17.55;74.50
46583;BME280;32309;48.858;8.252;2022-09-09T06:43:02;99962.16;;;17.56;74.41
46583;BME280;32309;48.858;8.252;2022-09-09T06:45:02;99951.69;;;17.56;73.94
46583;BME280;32309;48.858;8.252;2022-09-09T06:47:03;99960.34;;;17.56;73.30
46583;BME280;32309;48.858;8.252;2022-09-09T06:49:03;99953.34;;;17.57;73.93
46583;BME280;32309;48.858;8.252;2022-09-09T06:51:04;99950.72;;;17.57;73.60
46583;BME280;32309;48.858;8.252;2022-09-09T06:53:05;99957.63;;;17.58;73.66
46583;BME280;32309;48.858;8.252;2022-09-09T06:55:05;99961.88;;;17.59;73.79
46583;BME280;32309;48.858;8.252;2022-09-09T06:57:06;99959.09;;;17.60;73.21
46583;BME280;32309;48.858;8.252;2022-09-09T06:59:07;99958.84;;;17.63;73.34
46583;BME280;32309;48.858;8.252;2022-09-09T07:01:08;99962.13;;;17.66;73.61
46583;BME280;32309;48.858;8.252;2022-09-09T07:03:10;99963.78;;;17.67;73.28
46583;BME280;32309;48.858;8.252;2022-09-09T07:05:10;99968.22;;;17.66;73.16
46583;BME280;32309;48.858;8.252;2022-09-09T07:07:11;99964.88;;;17.64;73.51
46583;BME280;32309;48.858;8.252;2022-09-09T07:09:14;99962.56;;;17.61;73.75
46583;BME280;32309;48.858;8.252;2022-09-09T07:11:16;99968.91;;;17.58;74.63
46583;BME280;32309;48.858;8.252;2022-09-09T07:13:16;99964.78;;;17.56;75.00
46583;BME280;32309;48.858;8.252;2022-09-09T07:15:17;99972.34;;;17.59;75.29
46583;BME280;32309;48.858;8.252;2022-09-09T07:17:18;99959.78;;;17.62;74.97
46583;BME280;32309;48.858;8.252;2022-09-09T07:19:18;99977.44;;;17.70;75.89
46583;BME280;32309;48.858;8.252;2022-09-09T07:21:19;99969.00;;;17.76;75.73
46583;BME280;32309;48.858;8.252;2022-09-09T07:23:20;99978.91;;;17.83;75.21
46583;BME280;32309;48.858;8.252;2022-09-09T07:25:21;99970.09;;;17.84;74.35
46583;BME280;32309;48.858;8.252;2022-09-09T07:27:21;99975.44;;;17.92;75.81
46583;BME280;32309;48.858;8.252;2022-09-09T07:29:22;99968.97;;;17.96;74.71
46583;BME280;32309;48.858;8.252;2022-09-09T07:31:26;99971.16;;;18.01;74.92
46583;BME280;32309;48.858;8.252;2022-09-09T07:33:27;99963.53;;;18.07;75.18
46583;BME280;32309;48.858;8.252;2022-09-09T07:35:28;99966.41;;;18.14;74.81
46583;BME280;32309;48.858;8.252;2022-09-09T07:37:28;99964.56;;;18.24;74.82
46583;BME280;32309;48.858;8.252;2022-09-09T07:39:29;99970.75;;;18.33;75.13
46583;BME280;32309;48.858;8.252;2022-09-09T07:41:31;99972.63;;;18.41;74.61
46583;BME280;32309;48.858;8.252;2022-09-09T07:43:34;99970.53;;;18.44;74.51
46583;BME280;32309;48.858;8.252;2022-09-09T07:45:35;99977.44;;;18.45;73.78
46583;BME280;32309;48.858;8.252;2022-09-09T07:47:35;99986.53;;;18.51;72.64
46583;BME280;32309;48.858;8.252;2022-09-09T07:49:35;99977.91;;;18.59;73.28
46583;BME280;32309;48.858;8.252;2022-09-09T07:51:37;99975.97;;;18.61;72.94
46583;BME280;32309;48.858;8.252;2022-09-09T07:53:39;99977.75;;;18.60;71.74
46583;BME280;32309;48.858;8.252;2022-09-09T07:55:39;99977.50;;;18.63;71.87
46583;BME280;32309;48.858;8.252;2022-09-09T07:57:40;99983.94;;;18.69;71.49
46583;BME280;32309;48.858;8.252;2022-09-09T07:59:40;99985.13;;;18.75;71.09
46583;BME280;32309;48.858;8.252;2022-09-09T08:01:42;99984.97;;;18.76;71.72
46583;BME280;32309;48.858;8.252;2022-09-09T08:03:51;99987.75;;;18.75;70.98
46583;BME280;32309;48.858;8.252;2022-09-09T08:05:59;99998.41;;;18.73;71.51
46583;BME280;32309;48.858;8.252;2022-09-09T08:08:01;99992.63;;;18.70;71.29
46583;BME280;32309;48.858;8.252;2022-09-09T08:10:03;99983.56;;;18.64;70.59
46583;BME280;32309;48.858;8.252;2022-09-09T08:12:04;99991.72;;;18.61;70.70
46583;BME280;32309;48.858;8.252;2022-09-09T08:14:07;99992.84;;;18.58;70.99
46583;BME280;32309;48.858;8.252;2022-09-09T08:16:16;100003.50;;;18.57;71.66
46583;BME280;32309;48.858;8.252;2022-09-09T08:18:21;100000.34;;;18.53;71.26
46583;BME280;32309;48.858;8.252;2022-09-09T08:20:22;99997.47;;;18.46;71.00
46583;BME280;32309;48.858;8.252;2022-09-09T08:22:23;100004.50;;;18.46;72.50
46583;BME280;32309;48.858;8.252;2022-09-09T08:24:24;99999.13;;;18.48;72.06
46583;BME280;32309;48.858;8.252;2022-09-09T08:28:27;100010.28;;;18.50;72.58
46583;BME280;32309;48.858;8.252;2022-09-09T08:30:28;100009.31;;;18.51;71.40
46583;BME280;32309;48.858;8.252;2022-09-09T08:32:28;100012.34;;;18.56;72.12
46583;BME280;32309;48.858;8.252;2022-09-09T08:34:29;100005.13;;;18.58;71.61
46583;BME280;32309;48.858;8.252;2022-09-09T08:36:31;100013.69;;;18.60;71.72
46583;BME280;32309;48.858;8.252;2022-09-09T08:38:33;100011.88;;;18.60;71.51
46583;BME280;32309;48.858;8.252;2022-09-09T08:40:33;100015.47;;;18.59;71.64
46583;BME280;32309;48.858;8.252;2022-09-09T08:42:49;100017.13;;;18.60;71.71
46583;BME280;32309;48.858;8.252;2022-09-09T08:49:23;100024.09;;;18.52;72.94
46583;BME280;32309;48.858;8.252;2022-09-09T08:51:27;100027.41;;;18.54;72.66
46583;BME280;32309;48.858;8.252;2022-09-09T08:53:36;100023.56;;;18.48;71.83
46583;BME280;32309;48.858;8.252;2022-09-09T08:55:48;100029.34;;;18.52;72.02
46583;BME280;32309;48.858;8.252;2022-09-09T08:57:59;100029.88;;;18.55;72.44
46583;BME280;32309;48.858;8.252;2022-09-09T09:00:27;100027.78;;;18.59;72.24
46583;BME280;32309;48.858;8.252;2022-09-09T09:02:36;100024.84;;;18.62;73.28
46583;BME280;32309;48.858;8.252;2022-09-09T09:04:45;100020.00;;;18.67;73.00
46583;BME280;32309;48.858;8.252;2022-09-09T09:11:22;100014.56;;;18.78;71.34
46583;BME280;32309;48.858;8.252;2022-09-09T09:13:45;100018.38;;;18.84;71.58
46583;BME280;32309;48.858;8.252;2022-09-09T09:15:54;100014.38;;;18.90;70.98
46583;BME280;32309;48.858;8.252;2022-09-09T09:17:58;100012.25;;;18.93;70.41
46583;BME280;32309;48.858;8.252;2022-09-09T09:19:58;100006.03;;;18.94;70.64
46583;BME280;32309;48.858;8.252;2022-09-09T09:24:22;100013.50;;;18.99;70.74
46583;BME280;32309;48.858;8.252;2022-09-09T09:26:42;100019.41;;;19.01;70.00
46583;BME280;32309;48.858;8.252;2022-09-09T09:28:43;100016.47;;;19.04;69.30
46583;BME280;32309;48.858;8.252;2022-09-09T09:32:54;100018.28;;;19.04;68.67
46583;BME280;32309;48.858;8.252;2022-09-09T09:34:56;100005.00;;;19.05;70.06
46583;BME280;32309;48.858;8.252;2022-09-09T09:36:58;100007.94;;;19.02;69.09
46583;BME280;32309;48.858;8.252;2022-09-09T09:39:04;100012.06;;;19.05;69.88
46583;BME280;32309;48.858;8.252;2022-09-09T09:41:05;100010.78;;;19.09;69.83
46583;BME280;32309;48.858;8.252;2022-09-09T09:43:05;100017.31;;;19.05;68.54
46583;BME280;32309;48.858;8.252;2022-09-09T09:45:43;100025.34;;;19.03;68.00
46583;BME280;32309;48.858;8.252;2022-09-09T09:47:41;100014.69;;;19.05;68.82
46583;BME280;32309;48.858;8.252;2022-09-09T09:49:52;100021.72;;;19.04;68.52
46583;BME280;32309;48.858;8.252;2022-09-09T09:51:59;100020.75;;;19.05;68.57
46583;BME280;32309;48.858;8.252;2022-09-09T09:56:15;100020.22;;;19.20;68.73
46583;BME280;32309;48.858;8.252;2022-09-09T09:58:16;100024.88;;;19.26;68.25
46583;BME280;32309;48.858;8.252;2022-09-09T10:00:18;100014.75;;;19.31;68.01
46583;BME280;32309;48.858;8.252;2022-09-09T10:02:21;100018.41;;;19.38;67.76
46583;BME280;32309;48.858;8.252;2022-09-09T10:04:27;100020.59;;;19.43;65.99
46583;BME280;32309;48.858;8.252;2022-09-09T10:06:34;100010.47;;;19.48;66.76
46583;BME280;32309;48.858;8.252;2022-09-09T10:08:44;100012.16;;;19.57;66.89
46583;BME280;32309;48.858;8.252;2022-09-09T10:13:14;100012.00;;;19.59;66.34
46583;BME280;32309;48.858;8.252;2022-09-09T10:20:14;100003.53;;;19.65;66.22
46583;BME280;32309;48.858;8.252;2022-09-09T10:24:32;99989.94;;;19.78;66.58
46583;BME280;32309;48.858;8.252;2022-09-09T10:33:51;99994.09;;;20.07;65.14
46583;BME280;32309;48.858;8.252;2022-09-09T10:36:40;99995.28;;;20.13;65.73
46583;BME280;32309;48.858;8.252;2022-09-09T10:42:56;99991.19;;;20.18;63.83
46583;BME280;32309;48.858;8.252;2022-09-09T10:45:18;99995.47;;;20.19;63.66
46583;BME280;32309;48.858;8.252;2022-09-09T10:47:40;99995.94;;;20.15;63.03
46583;BME280;32309;48.858;8.252;2022-09-09T10:52:32;99994.34;;;20.22;64.04
46583;BME280;32309;48.858;8.252;2022-09-09T10:54:54;99995.66;;;20.26;64.01
46583;BME280;32309;48.858;8.252;2022-09-09T10:57:01;99991.41;;;20.33;64.18
46583;BME280;32309;48.858;8.252;2022-09-09T10:59:13;99993.06;;;20.42;64.50
46583;BME280;32309;48.858;8.252;2022-09-09T11:01:24;99983.41;;;20.51;62.92
46583;BME280;32309;48.858;8.252;2022-09-09T11:03:47;99984.75;;;20.64;63.87
46583;BME280;32309;48.858;8.252;2022-09-09T11:08:48;99974.47;;;20.78;63.07
46583;BME280;32309;48.858;8.252;2022-09-09T11:10:58;99976.59;;;20.75;62.93
46583;BME280;32309;48.858;8.252;2022-09-09T11:13:12;99973.63;;;20.70;62.38
46583;BME280;32309;48.858;8.252;2022-09-09T11:15:45;99975.72;;;20.66;63.40
46583;BME280;32309;48.858;8.252;2022-09-09T11:17:51;99975.00;;;20.56;62.85
46583;BME280;32309;48.858;8.252;2022-09-09T11:19:54;99969.91;;;20.46;63.05
46583;BME280;32309;48.858;8.252;2022-09-09T11:21:55;99971.31;;;20.32;62.86
46583;BME280;32309;48.858;8.252;2022-09-09T11:23:59;99978.72;;;20.28;62.04
46583;BME280;32309;48.858;8.252;2022-09-09T11:26:11;99976.09;;;20.28;63.22
46583;BME280;32309;48.858;8.252;2022-09-09T11:35:20;99964.56;;;20.72;61.55
46583;BME280;32309;48.858;8.252;2022-09-09T11:42:21;99949.28;;;20.84;59.08
46583;BME280;32309;48.858;8.252;2022-09-09T11:44:28;99945.66;;;20.85;58.59
46583;BME280;32309;48.858;8.252;2022-09-09T11:46:37;99955.06;;;20.88;59.27
46583;BME280;32309;48.858;8.252;2022-09-09T11:48:40;99945.84;;;20.92;59.68
46583;BME280;32309;48.858;8.252;2022-09-09T11:50:45;99945.84;;;20.92;58.68
46583;BME280;32309;48.858;8.252;2022-09-09T11:52:46;99946.63;;;20.92;56.19
46583;BME280;32309;48.858;8.252;2022-09-09T11:54:48;99947.78;;;20.98;58.22
46583;BME280;32309;48.858;8.252;2022-09-09T11:56:50;99945.66;;;21.02;56.98
46583;BME280;32309;48.858;8.252;2022-09-09T11:58:54;99950.91;;;21.10;56.21
46583;BME280;32309;48.858;8.252;2022-09-09T12:00:55;99941.56;;;21.16;55.83
46583;BME280;32309;48.858;8.252;2022-09-09T12:02:55;99946.13;;;21.22;56.62
46583;BME280;32309;48.858;8.252;2022-09-09T12:04:57;99945.16;;;21.23;56.07
46583;BME280;32309;48.858;8.252;2022-09-09T12:09:50;99942.19;;;21.18;54.05
46583;BME280;32309;48.858;8.252;2022-09-09T12:12:06;99941.22;;;21.19;54.69
46583;BME280;32309;48.858;8.252;2022-09-09T12:14:22;99935.59;;;21.22;57.34
46583;BME280;32309;48.858;8.252;2022-09-09T12:16:36;99935.59;;;21.22;56.17
46583;BME280;32309;48.858;8.252;2022-09-09T12:18:38;99932.81;;;21.15;53.58
46583;BME280;32309;48.858;8.252;2022-09-09T12:20:39;99930.00;;;21.08;54.69
46583;BME280;32309;48.858;8.252;2022-09-09T12:27:38;99927.72;;;20.97;54.64
46583;BME280;32309;48.858;8.252;2022-09-09T12:34:18;99964.81;;;20.61;60.88
46583;BME280;32309;48.858;8.252;2022-09-09T12:36:32;99958.81;;;19.91;64.41
46583;BME280;32309;48.858;8.252;2022-09-09T12:38:37;99962.47;;;19.72;67.01
46583;BME280;32309;48.858;8.252;2022-09-09T12:40:43;99948.81;;;19.69;66.60
46583;BME280;32309;48.858;8.252;2022-09-09T12:51:28;99932.38;;;19.67;66.91
46583;BME280;32309;48.858;8.252;2022-09-09T12:56:54;99929.06;;;19.65;69.14
46583;BME280;32309;48.858;8.252;2022-09-09T13:06:20;99929.09;;;19.73;71.52
46583;BME280;32309;48.858;8.252;2022-09-09T13:21:51;99892.94;;;20.01;69.38
46583;BME280;32309;48.858;8.252;2022-09-09T13:24:01;99887.69;;;20.01;69.97
46583;BME280;32309;48.858;8.252;2022-09-09T13:29:16;99890.94;;;19.95;66.59
46583;BME280;32309;48.858;8.252;2022-09-09T13:31:33;99883.22;;;19.93;67.16
46583;BME280;32309;48.858;8.252;2022-09-09T13:33:39;99884.09;;;20.02;65.08